sensor_id;sensor_type;location;lat;lon;timestamp;P1;durP1;ratioP1;P2;durP2;ratioP2
74914;SDS011;63475;45.140;-75.616;2023-06-04T00:00:49;5.90;;;0.88;;
74914;SDS011;63475;45.140;-75.616;2023-06-04T00:01:51;4.60;;;0.75;;
74914;SDS011;63475;45.140;-75.616;2023-06-04T00:02:54;8.38;;;0.98;;
74914;SDS011;63475;45.140;-75.616;2023-06-04T00:03:57;4.30;;;0.70;;
74914;SDS011;63475;45.140;-75.616;2023-06-04T00:05:00;5.18;;;0.70;;
74914;SDS011;63475;45.140;-75.616;2023-06-04T00:06:02;2.90;;;0.60;;
74914;SDS011;63475;45.140;-75.616;2023-06-04T00:07:05;4.82;;;0.63;;
74914;SDS011;63475;45.140;-75.616;2023-06-04T00:08:08;3.45;;;1.70;;
74914;SDS011;63475;45.140;-75.616;2023-06-04T00:09:10;3.92;;;0.95;;
74914;SDS011;63475;45.140;-75.616;2023-06-04T00:10:13;4.03;;;0.50;;
74914;SDS011;63475;45.140;-75.616;2023-06-04T00:11:16;4.93;;;0.90;;
74914;SDS011;63475;45.140;-75.616;2023-06-04T00:12:18;5.68;;;0.77;;
74914;SDS011;63475;45.140;-75.616;2023-06-04T00:13:21;5.20;;;0.80;;
74914;SDS011;63475;45.140;-75.616;2023-06-04T00:14:24;5.63;;;0.50;;
74914;SDS011;63475;45.140;-75.616;2023-06-04T00:15:26;5.72;;;0.68;;
74914;SDS011;63475;45.140;-75.616;2023-06-04T00:16:29;5.28;;;0.98;;
74914;SDS011;63475;45.140;-75.616;2023-06-04T00:17:32;5.20;;;0.82;;
74914;SDS011;63475;45.140;-75.616;2023-06-04T00:18:34;4.47;;;0.50;;
74914;SDS011;63475;45.140;-75.616;2023-06-04T00:19:40;3.10;;;0.63;;
74914;SDS011;63475;45.140;-75.616;2023-06-04T00:20:43;6.13;;;0.80;;
74914;SDS011;63475;45.140;-75.616;2023-06-04T00:21:45;3.92;;;0.40;;
74914;SDS011;63475;45.140;-75.616;2023-06-04T00:22:48;4.65;;;0.60;;
74914;SDS011;63475;45.140;-75.616;2023-06-04T00:23:51;3.95;;;1.13;;
74914;SDS011;63475;45.140;-75.616;2023-06-04T00:24:54;5.25;;;1.00;;
74914;SDS011;63475;45.140;-75.616;2023-06-04T00:25:56;3.03;;;0.85;;
74914;SDS011;63475;45.140;-75.616;2023-06-04T00:26:59;5.25;;;1.13;;
74914;SDS011;63475;45.140;-75.616;2023-06-04T00:28:01;3.67;;;0.80;;
74914;SDS011;63475;45.140;-75.616;2023-06-04T00:29:04;3.85;;;0.70;;
74914;SDS011;63475;45.140;-75.616;2023-06-04T00:30:07;4.80;;;0.80;;
74914;SDS011;63475;45.140;-75.616;2023-06-04T00:31:10;4.70;;;0.70;;
74914;SDS011;63475;45.140;-75.616;2023-06-04T00:32:14;2.83;;;0.60;;
74914;SDS011;63475;45.140;-75.616;2023-06-04T00:33:17;6.03;;;1.25;;
74914;SDS011;63475;45.140;-75.616;2023-06-04T00:34:20;4.13;;;0.85;;
74914;SDS011;63475;45.140;-75.616;2023-06-04T00:35:23;6.00;;;0.50;;
74914;SDS011;63475;45.140;-75.616;2023-06-04T00:36:26;3.40;;;0.80;;
74914;SDS011;63475;45.140;-75.616;2023-06-04T00:37:28;4.57;;;0.70;;
74914;SDS011;63475;45.140;-75.616;2023-06-04T00:38:31;4.00;;;0.75;;
74914;SDS011;63475;45.140;-75.616;2023-06-04T00:39:34;6.07;;;0.93;;
74914;SDS011;63475;45.140;-75.616;2023-06-04T00:40:37;5.40;;;1.10;;
74914;SDS011;63475;45.140;-75.616;2023-06-04T00:41:39;4.05;;;0.80;;
74914;SDS011;63475;45.140;-75.616;2023-06-04T00:42:43;3.95;;;0.75;;
74914;SDS011;63475;45.140;-75.616;2023-06-04T00:43:47;3.60;;;0.65;;
74914;SDS011;63475;45.140;-75.616;2023-06-04T00:44:58;7.95;;;0.85;;
74914;SDS011;63475;45.140;-75.616;2023-06-04T00:46:01;4.65;;;1.00;;
74914;SDS011;63475;45.140;-75.616;2023-06-04T00:47:07;4.47;;;1.00;;
74914;SDS011;63475;45.140;-75.616;2023-06-04T00:48:09;3.95;;;0.95;;
74914;SDS011;63475;45.140;-75.616;2023-06-04T00:49:12;5.22;;;1.00;;
74914;SDS011;63475;45.140;-75.616;2023-06-04T00:50:15;3.95;;;0.80;;
74914;SDS011;63475;45.140;-75.616;2023-06-04T00:51:19;6.10;;;0.80;;
74914;SDS011;63475;45.140;-75.616;2023-06-04T00:52:23;5.35;;;0.80;;
74914;SDS011;63475;45.140;-75.616;2023-06-04T00:53:26;4.97;;;0.57;;
74914;SDS011;63475;45.140;-75.616;2023-06-04T00:54:29;5.18;;;0.60;;
74914;SDS011;63475;45.140;-75.616;2023-06-04T00:55:34;5.13;;;0.88;;
74914;SDS011;63475;45.140;-75.616;2023-06-04T00:56:37;4.03;;;0.60;;
74914;SDS011;63475;45.140;-75.616;2023-06-04T00:57:40;3.45;;;1.00;;
74914;SDS011;63475;45.140;-75.616;2023-06-04T00:58:43;4.45;;;0.60;;
74914;SDS011;63475;45.140;-75.616;2023-06-04T00:59:46;4.30;;;1.08;;
74914;SDS011;63475;45.140;-75.616;2023-06-04T01:00:50;3.83;;;0.90;;
74914;SDS011;63475;45.140;-75.616;2023-06-04T01:02:00;5.00;;;0.77;;
74914;SDS011;63475;45.140;-75.616;2023-06-04T01:03:07;4.32;;;0.93;;
74914;SDS011;63475;45.140;-75.616;2023-06-04T01:04:43;5.20;;;0.77;;
74914;SDS011;63475;45.140;-75.616;2023-06-04T01:06:08;3.85;;;0.80;;
74914;SDS011;63475;45.140;-75.616;2023-06-04T01:07:23;4.90;;;0.90;;
74914;SDS011;63475;45.140;-75.616;2023-06-04T01:08:29;4.05;;;1.15;;
74914;SDS011;63475;45.140;-75.616;2023-06-04T01:10:35;4.97;;;0.88;;
74914;SDS011;63475;45.140;-75.616;2023-06-04T01:11:38;4.72;;;0.95;;
74914;SDS011;63475;45.140;-75.616;2023-06-04T01:12:42;3.60;;;1.10;;
74914;SDS011;63475;45.140;-75.616;2023-06-04T01:13:45;4.43;;;0.85;;
74914;SDS011;63475;45.140;-75.616;2023-06-04T01:14:49;4.00;;;0.80;;
74914;SDS011;63475;45.140;-75.616;2023-06-04T01:15:51;5.00;;;0.80;;
74914;SDS011;63475;45.140;-75.616;2023-06-04T01:16:58;4.78;;;0.90;;
74914;SDS011;63475;45.140;-75.616;2023-06-04T01:18:05;2.95;;;0.82;;
74914;SDS011;63475;45.140;-75.616;2023-06-04T01:21:37;5.13;;;1.08;;
74914;SDS011;63475;45.140;-75.616;2023-06-04T01:23:49;6.88;;;1.30;;
74914;SDS011;63475;45.140;-75.616;2023-06-04T01:25:03;9.80;;;1.23;;
74914;SDS011;63475;45.140;-75.616;2023-06-04T01:26:08;5.40;;;1.55;;
74914;SDS011;63475;45.140;-75.616;2023-06-04T01:27:12;7.10;;;1.73;;
74914;SDS011;63475;45.140;-75.616;2023-06-04T01:28:17;6.32;;;1.60;;
74914;SDS011;63475;45.140;-75.616;2023-06-04T01:29:22;4.65;;;1.58;;
74914;SDS011;63475;45.140;-75.616;2023-06-04T01:30:26;6.45;;;1.60;;
74914;SDS011;63475;45.140;-75.616;2023-06-04T01:31:34;4.97;;;1.52;;
74914;SDS011;63475;45.140;-75.616;2023-06-04T01:32:37;6.75;;;1.50;;
74914;SDS011;63475;45.140;-75.616;2023-06-04T01:33:40;7.80;;;1.60;;
74914;SDS011;63475;45.140;-75.616;2023-06-04T01:34:46;6.28;;;1.27;;
74914;SDS011;63475;45.140;-75.616;2023-06-04T01:35:49;5.95;;;1.42;;
74914;SDS011;63475;45.140;-75.616;2023-06-04T01:36:52;3.92;;;1.00;;
74914;SDS011;63475;45.140;-75.616;2023-06-04T01:37:54;6.07;;;1.23;;
74914;SDS011;63475;45.140;-75.616;2023-06-04T01:38:57;3.45;;;0.93;;
74914;SDS011;63475;45.140;-75.616;2023-06-04T01:40:02;7.10;;;1.73;;
74914;SDS011;63475;45.140;-75.616;2023-06-04T01:41:07;5.53;;;1.17;;
74914;SDS011;63475;45.140;-75.616;2023-06-04T01:42:09;7.68;;;1.05;;
74914;SDS011;63475;45.140;-75.616;2023-06-04T01:43:12;8.25;;;1.40;;
74914;SDS011;63475;45.140;-75.616;2023-06-04T01:44:15;5.78;;;1.35;;
74914;SDS011;63475;45.140;-75.616;2023-06-04T01:45:18;9.27;;;1.83;;
74914;SDS011;63475;45.140;-75.616;2023-06-04T01:46:21;5.03;;;1.33;;
74914;SDS011;63475;45.140;-75.616;2023-06-04T01:47:24;7.22;;;2.20;;
74914;SDS011;63475;45.140;-75.616;2023-06-04T01:48:26;5.32;;;1.83;;
74914;SDS011;63475;45.140;-75.616;2023-06-04T01:49:29;8.40;;;1.70;;
74914;SDS011;63475;45.140;-75.616;2023-06-04T01:50:32;7.28;;;1.77;;
74914;SDS011;63475;45.140;-75.616;2023-06-04T01:51:35;9.40;;;1.85;;
74914;SDS011;63475;45.140;-75.616;2023-06-04T01:52:39;7.63;;;2.20;;
74914;SDS011;63475;45.140;-75.616;2023-06-04T01:53:42;5.65;;;2.30;;
74914;SDS011;63475;45.140;-75.616;2023-06-04T01:54:45;4.50;;;1.75;;
74914;SDS011;63475;45.140;-75.616;2023-06-04T01:55:47;5.38;;;1.98;;
74914;SDS011;63475;45.140;-75.616;2023-06-04T01:56:51;6.28;;;2.53;;
74914;SDS011;63475;45.140;-75.616;2023-06-04T01:57:53;7.05;;;2.78;;
74914;SDS011;63475;45.140;-75.616;2023-06-04T01:58:56;8.15;;;3.47;;
74914;SDS011;63475;45.140;-75.616;2023-06-04T01:59:59;7.28;;;3.33;;
74914;SDS011;63475;45.140;-75.616;2023-06-04T02:01:02;6.03;;;2.75;;
74914;SDS011;63475;45.140;-75.616;2023-06-04T02:02:05;7.53;;;3.00;;
74914;SDS011;63475;45.140;-75.616;2023-06-04T02:03:08;8.27;;;3.50;;
74914;SDS011;63475;45.140;-75.616;2023-06-04T02:04:12;7.28;;;3.35;;
74914;SDS011;63475;45.140;-75.616;2023-06-04T02:05:15;7.57;;;3.58;;
74914;SDS011;63475;45.140;-75.616;2023-06-04T02:06:18;6.07;;;3.40;;
74914;SDS011;63475;45.140;-75.616;2023-06-04T02:07:21;7.47;;;3.00;;
74914;SDS011;63475;45.140;-75.616;2023-06-04T02:08:23;7.20;;;3.60;;
74914;SDS011;63475;45.140;-75.616;2023-06-04T02:11:32;7.00;;;3.05;;
74914;SDS011;63475;45.140;-75.616;2023-06-04T02:12:36;7.13;;;3.20;;
74914;SDS011;63475;45.140;-75.616;2023-06-04T02:13:39;6.82;;;3.10;;
74914;SDS011;63475;45.140;-75.616;2023-06-04T02:14:42;7.45;;;3.47;;
74914;SDS011;63475;45.140;-75.616;2023-06-04T02:15:47;6.47;;;2.83;;
74914;SDS011;63475;45.140;-75.616;2023-06-04T02:16:49;6.18;;;2.85;;
74914;SDS011;63475;45.140;-75.616;2023-06-04T02:17:57;6.95;;;2.97;;
74914;SDS011;63475;45.140;-75.616;2023-06-04T02:19:01;5.10;;;2.58;;
74914;SDS011;63475;45.140;-75.616;2023-06-04T02:20:05;6.22;;;2.45;;
74914;SDS011;63475;45.140;-75.616;2023-06-04T02:21:11;5.28;;;3.83;;
74914;SDS011;63475;45.140;-75.616;2023-06-04T02:22:14;5.22;;;2.50;;
74914;SDS011;63475;45.140;-75.616;2023-06-04T02:23:18;6.05;;;2.78;;
74914;SDS011;63475;45.140;-75.616;2023-06-04T02:24:22;6.07;;;2.80;;
74914;SDS011;63475;45.140;-75.616;2023-06-04T02:25:24;6.90;;;2.95;;
74914;SDS011;63475;45.140;-75.616;2023-06-04T02:26:27;6.75;;;2.42;;
74914;SDS011;63475;45.140;-75.616;2023-06-04T02:27:30;6.30;;;2.20;;
74914;SDS011;63475;45.140;-75.616;2023-06-04T02:28:33;5.78;;;2.72;;
74914;SDS011;63475;45.140;-75.616;2023-06-04T02:29:35;6.88;;;3.00;;
74914;SDS011;63475;45.140;-75.616;2023-06-04T02:30:39;5.72;;;2.90;;
74914;SDS011;63475;45.140;-75.616;2023-06-04T02:31:42;7.70;;;5.07;;
74914;SDS011;63475;45.140;-75.616;2023-06-04T02:32:45;7.38;;;2.83;;
74914;SDS011;63475;45.140;-75.616;2023-06-04T02:33:53;7.05;;;3.05;;
74914;SDS011;63475;45.140;-75.616;2023-06-04T02:34:57;5.75;;;2.83;;
74914;SDS011;63475;45.140;-75.616;2023-06-04T02:36:00;8.25;;;2.92;;
74914;SDS011;63475;45.140;-75.616;2023-06-04T02:37:04;8.65;;;2.88;;
74914;SDS011;63475;45.140;-75.616;2023-06-04T02:39:09;6.35;;;2.75;;
74914;SDS011;63475;45.140;-75.616;2023-06-04T02:40:12;7.57;;;2.80;;
74914;SDS011;63475;45.140;-75.616;2023-06-04T02:41:15;5.68;;;2.60;;
74914;SDS011;63475;45.140;-75.616;2023-06-04T02:42:18;7.93;;;2.60;;
74914;SDS011;63475;45.140;-75.616;2023-06-04T02:43:20;7.03;;;2.90;;
74914;SDS011;63475;45.140;-75.616;2023-06-04T02:44:23;6.13;;;2.33;;
74914;SDS011;63475;45.140;-75.616;2023-06-04T02:45:28;6.45;;;2.65;;
74914;SDS011;63475;45.140;-75.616;2023-06-04T02:46:30;6.63;;;2.50;;
74914;SDS011;63475;45.140;-75.616;2023-06-04T02:47:33;8.35;;;2.15;;
74914;SDS011;63475;45.140;-75.616;2023-06-04T02:48:36;6.60;;;2.28;;
74914;SDS011;63475;45.140;-75.616;2023-06-04T02:49:38;5.35;;;1.80;;
74914;SDS011;63475;45.140;-75.616;2023-06-04T02:50:41;6.57;;;1.98;;
74914;SDS011;63475;45.140;-75.616;2023-06-04T02:51:44;6.78;;;1.95;;
74914;SDS011;63475;45.140;-75.616;2023-06-04T02:52:47;4.75;;;1.55;;
74914;SDS011;63475;45.140;-75.616;2023-06-04T02:53:50;5.40;;;1.63;;
74914;SDS011;63475;45.140;-75.616;2023-06-04T02:54:54;6.30;;;1.80;;
74914;SDS011;63475;45.140;-75.616;2023-06-04T02:55:57;6.78;;;2.08;;
74914;SDS011;63475;45.140;-75.616;2023-06-04T02:56:59;6.70;;;1.88;;
74914;SDS011;63475;45.140;-75.616;2023-06-04T02:58:02;5.90;;;1.98;;
74914;SDS011;63475;45.140;-75.616;2023-06-04T02:59:04;5.63;;;1.70;;
74914;SDS011;63475;45.140;-75.616;2023-06-04T03:00:08;6.55;;;1.70;;
74914;SDS011;63475;45.140;-75.616;2023-06-04T03:01:18;5.90;;;2.42;;
74914;SDS011;63475;45.140;-75.616;2023-06-04T03:02:22;5.35;;;1.42;;
74914;SDS011;63475;45.140;-75.616;2023-06-04T03:03:25;5.05;;;1.75;;
74914;SDS011;63475;45.140;-75.616;2023-06-04T03:04:28;5.35;;;1.88;;
74914;SDS011;63475;45.140;-75.616;2023-06-04T03:05:36;6.20;;;1.60;;
74914;SDS011;63475;45.140;-75.616;2023-06-04T03:06:41;4.75;;;1.48;;
74914;SDS011;63475;45.140;-75.616;2023-06-04T03:07:48;4.97;;;1.38;;
74914;SDS011;63475;45.140;-75.616;2023-06-04T03:08:50;5.10;;;1.58;;
74914;SDS011;63475;45.140;-75.616;2023-06-04T03:09:53;4.72;;;1.45;;
74914;SDS011;63475;45.140;-75.616;2023-06-04T03:10:56;6.38;;;1.60;;
74914;SDS011;63475;45.140;-75.616;2023-06-04T03:12:02;7.65;;;1.90;;
74914;SDS011;63475;45.140;-75.616;2023-06-04T03:13:05;3.90;;;1.63;;
74914;SDS011;63475;45.140;-75.616;2023-06-04T03:14:08;5.72;;;1.75;;
74914;SDS011;63475;45.140;-75.616;2023-06-04T03:15:11;4.15;;;1.40;;
74914;SDS011;63475;45.140;-75.616;2023-06-04T03:16:14;4.82;;;1.27;;
74914;SDS011;63475;45.140;-75.616;2023-06-04T03:17:17;4.15;;;1.42;;
74914;SDS011;63475;45.140;-75.616;2023-06-04T03:18:19;4.70;;;1.48;;
74914;SDS011;63475;45.140;-75.616;2023-06-04T03:19:22;4.78;;;1.30;;
74914;SDS011;63475;45.140;-75.616;2023-06-04T03:20:25;4.68;;;1.30;;
74914;SDS011;63475;45.140;-75.616;2023-06-04T03:21:27;5.80;;;1.73;;
74914;SDS011;63475;45.140;-75.616;2023-06-04T03:22:31;4.32;;;1.33;;
74914;SDS011;63475;45.140;-75.616;2023-06-04T03:23:35;5.05;;;1.40;;
74914;SDS011;63475;45.140;-75.616;2023-06-04T03:24:39;6.38;;;1.42;;
74914;SDS011;63475;45.140;-75.616;2023-06-04T03:25:42;5.85;;;1.50;;
74914;SDS011;63475;45.140;-75.616;2023-06-04T03:26:44;5.70;;;1.50;;
74914;SDS011;63475;45.140;-75.616;2023-06-04T03:27:47;4.88;;;1.40;;
74914;SDS011;63475;45.140;-75.616;2023-06-04T03:28:50;5.13;;;2.78;;
74914;SDS011;63475;45.140;-75.616;2023-06-04T03:29:52;6.78;;;1.67;;
74914;SDS011;63475;45.140;-75.616;2023-06-04T03:30:55;5.60;;;1.52;;
74914;SDS011;63475;45.140;-75.616;2023-06-04T03:31:58;4.68;;;1.60;;
74914;SDS011;63475;45.140;-75.616;2023-06-04T03:33:01;6.30;;;1.33;;
74914;SDS011;63475;45.140;-75.616;2023-06-04T03:34:04;5.00;;;1.55;;
74914;SDS011;63475;45.140;-75.616;2023-06-04T03:35:07;5.72;;;1.38;;
74914;SDS011;63475;45.140;-75.616;2023-06-04T03:36:10;4.45;;;1.40;;
74914;SDS011;63475;45.140;-75.616;2023-06-04T03:37:13;4.63;;;1.02;;
74914;SDS011;63475;45.140;-75.616;2023-06-04T03:38:15;4.90;;;1.40;;
74914;SDS011;63475;45.140;-75.616;2023-06-04T03:39:18;6.18;;;1.80;;
74914;SDS011;63475;45.140;-75.616;2023-06-04T03:40:21;4.57;;;1.42;;
74914;SDS011;63475;45.140;-75.616;2023-06-04T03:41:23;5.05;;;1.75;;
74914;SDS011;63475;45.140;-75.616;2023-06-04T03:42:28;5.18;;;1.27;;
74914;SDS011;63475;45.140;-75.616;2023-06-04T03:43:30;4.88;;;1.80;;
74914;SDS011;63475;45.140;-75.616;2023-06-04T03:44:33;4.40;;;1.48;;
74914;SDS011;63475;45.140;-75.616;2023-06-04T03:45:35;6.72;;;1.63;;
74914;SDS011;63475;45.140;-75.616;2023-06-04T03:46:38;4.55;;;1.58;;
74914;SDS011;63475;45.140;-75.616;2023-06-04T03:47:41;5.25;;;1.50;;
74914;SDS011;63475;45.140;-75.616;2023-06-04T03:48:44;6.25;;;1.52;;
74914;SDS011;63475;45.140;-75.616;2023-06-04T03:49:46;4.90;;;1.55;;
74914;SDS011;63475;45.140;-75.616;2023-06-04T03:50:49;5.03;;;1.40;;
74914;SDS011;63475;45.140;-75.616;2023-06-04T03:51:52;5.15;;;1.23;;
74914;SDS011;63475;45.140;-75.616;2023-06-04T03:52:55;5.00;;;1.40;;
74914;SDS011;63475;45.140;-75.616;2023-06-04T03:53:58;5.85;;;1.60;;
74914;SDS011;63475;45.140;-75.616;2023-06-04T03:55:01;5.72;;;1.38;;
74914;SDS011;63475;45.140;-75.616;2023-06-04T03:57:07;6.05;;;1.60;;
74914;SDS011;63475;45.140;-75.616;2023-06-04T03:58:10;4.65;;;1.30;;
74914;SDS011;63475;45.140;-75.616;2023-06-04T04:00:16;5.00;;;1.30;;
74914;SDS011;63475;45.140;-75.616;2023-06-04T04:01:19;4.18;;;1.30;;
74914;SDS011;63475;45.140;-75.616;2023-06-04T04:02:21;5.28;;;1.00;;
74914;SDS011;63475;45.140;-75.616;2023-06-04T04:03:24;4.38;;;1.15;;
74914;SDS011;63475;45.140;-75.616;2023-06-04T04:04:27;4.65;;;1.30;;
74914;SDS011;63475;45.140;-75.616;2023-06-04T04:05:30;3.88;;;1.00;;
74914;SDS011;63475;45.140;-75.616;2023-06-04T04:06:33;6.03;;;1.33;;
74914;SDS011;63475;45.140;-75.616;2023-06-04T04:07:37;4.75;;;1.65;;
74914;SDS011;63475;45.140;-75.616;2023-06-04T04:08:40;3.80;;;0.80;;
74914;SDS011;63475;45.140;-75.616;2023-06-04T04:09:44;3.92;;;0.93;;
74914;SDS011;63475;45.140;-75.616;2023-06-04T04:10:47;4.28;;;1.00;;
74914;SDS011;63475;45.140;-75.616;2023-06-04T04:11:49;4.38;;;0.95;;
74914;SDS011;63475;45.140;-75.616;2023-06-04T04:12:52;6.28;;;0.95;;
74914;SDS011;63475;45.140;-75.616;2023-06-04T04:13:56;3.00;;;0.80;;
74914;SDS011;63475;45.140;-75.616;2023-06-04T04:15:00;4.40;;;0.93;;
74914;SDS011;63475;45.140;-75.616;2023-06-04T04:16:02;4.97;;;1.02;;
74914;SDS011;63475;45.140;-75.616;2023-06-04T04:17:05;4.65;;;0.75;;
74914;SDS011;63475;45.140;-75.616;2023-06-04T04:18:08;6.50;;;1.15;;
74914;SDS011;63475;45.140;-75.616;2023-06-04T04:19:12;3.40;;;0.70;;
74914;SDS011;63475;45.140;-75.616;2023-06-04T04:20:16;6.07;;;0.90;;
74914;SDS011;63475;45.140;-75.616;2023-06-04T04:21:20;4.80;;;1.27;;
74914;SDS011;63475;45.140;-75.616;2023-06-04T04:22:22;4.40;;;1.15;;
74914;SDS011;63475;45.140;-75.616;2023-06-04T04:23:25;4.60;;;0.90;;
74914;SDS011;63475;45.140;-75.616;2023-06-04T04:26:34;3.70;;;0.85;;
74914;SDS011;63475;45.140;-75.616;2023-06-04T04:27:37;5.22;;;0.80;;
74914;SDS011;63475;45.140;-75.616;2023-06-04T04:28:42;4.57;;;0.75;;
74914;SDS011;63475;45.140;-75.616;2023-06-04T04:29:45;5.57;;;1.10;;
74914;SDS011;63475;45.140;-75.616;2023-06-04T04:30:49;3.58;;;1.08;;
74914;SDS011;63475;45.140;-75.616;2023-06-04T04:31:53;5.10;;;1.73;;
74914;SDS011;63475;45.140;-75.616;2023-06-04T04:32:59;5.53;;;0.82;;
74914;SDS011;63475;45.140;-75.616;2023-06-04T04:34:02;4.97;;;0.80;;
74914;SDS011;63475;45.140;-75.616;2023-06-04T04:35:10;3.60;;;0.80;;
74914;SDS011;63475;45.140;-75.616;2023-06-04T04:36:13;5.53;;;1.00;;
74914;SDS011;63475;45.140;-75.616;2023-06-04T04:37:15;4.03;;;0.80;;
74914;SDS011;63475;45.140;-75.616;2023-06-04T04:38:21;4.25;;;1.00;;
74914;SDS011;63475;45.140;-75.616;2023-06-04T04:39:27;5.15;;;1.27;;
74914;SDS011;63475;45.140;-75.616;2023-06-04T04:40:30;4.43;;;0.73;;
74914;SDS011;63475;45.140;-75.616;2023-06-04T04:41:33;5.07;;;0.90;;
74914;SDS011;63475;45.140;-75.616;2023-06-04T04:42:36;4.75;;;0.88;;
74914;SDS011;63475;45.140;-75.616;2023-06-04T04:43:38;6.10;;;0.95;;
74914;SDS011;63475;45.140;-75.616;2023-06-04T04:44:41;4.35;;;1.00;;
74914;SDS011;63475;45.140;-75.616;2023-06-04T04:45:44;3.67;;;0.82;;
74914;SDS011;63475;45.140;-75.616;2023-06-04T04:46:50;4.05;;;1.00;;
74914;SDS011;63475;45.140;-75.616;2023-06-04T04:47:52;4.10;;;1.00;;
74914;SDS011;63475;45.140;-75.616;2023-06-04T04:48:55;3.30;;;1.00;;
74914;SDS011;63475;45.140;-75.616;2023-06-04T04:49:58;3.05;;;0.52;;
74914;SDS011;63475;45.140;-75.616;2023-06-04T04:51:00;5.03;;;0.80;;
74914;SDS011;63475;45.140;-75.616;2023-06-04T04:52:04;5.88;;;0.80;;
74914;SDS011;63475;45.140;-75.616;2023-06-04T04:53:06;4.50;;;0.82;;
74914;SDS011;63475;45.140;-75.616;2023-06-04T04:54:09;4.07;;;1.05;;
74914;SDS011;63475;45.140;-75.616;2023-06-04T04:55:11;3.90;;;0.88;;
74914;SDS011;63475;45.140;-75.616;2023-06-04T04:56:14;4.47;;;0.90;;
74914;SDS011;63475;45.140;-75.616;2023-06-04T04:57:17;4.00;;;1.08;;
74914;SDS011;63475;45.140;-75.616;2023-06-04T04:58:20;3.55;;;0.85;;
74914;SDS011;63475;45.140;-75.616;2023-06-04T04:59:22;5.35;;;0.88;;
74914;SDS011;63475;45.140;-75.616;2023-06-04T05:00:25;3.50;;;0.77;;
74914;SDS011;63475;45.140;-75.616;2023-06-04T05:01:29;3.05;;;0.70;;
74914;SDS011;63475;45.140;-75.616;2023-06-04T05:02:32;4.63;;;1.08;;
74914;SDS011;63475;45.140;-75.616;2023-06-04T05:03:35;3.42;;;0.70;;
74914;SDS011;63475;45.140;-75.616;2023-06-04T05:04:37;4.95;;;0.85;;
74914;SDS011;63475;45.140;-75.616;2023-06-04T05:05:40;3.88;;;1.00;;
74914;SDS011;63475;45.140;-75.616;2023-06-04T05:06:43;4.72;;;1.67;;
74914;SDS011;63475;45.140;-75.616;2023-06-04T05:07:45;4.15;;;0.95;;
74914;SDS011;63475;45.140;-75.616;2023-06-04T05:08:48;5.05;;;0.98;;
74914;SDS011;63475;45.140;-75.616;2023-06-04T05:09:51;3.95;;;1.73;;
74914;SDS011;63475;45.140;-75.616;2023-06-04T05:10:54;4.40;;;1.17;;
74914;SDS011;63475;45.140;-75.616;2023-06-04T05:11:56;3.75;;;0.90;;
74914;SDS011;63475;45.140;-75.616;2023-06-04T05:12:59;3.45;;;0.73;;
74914;SDS011;63475;45.140;-75.616;2023-06-04T05:14:06;3.97;;;0.88;;
74914;SDS011;63475;45.140;-75.616;2023-06-04T05:15:09;4.47;;;1.13;;
74914;SDS011;63475;45.140;-75.616;2023-06-04T05:16:14;3.40;;;0.80;;
74914;SDS011;63475;45.140;-75.616;2023-06-04T05:17:17;4.13;;;0.80;;
74914;SDS011;63475;45.140;-75.616;2023-06-04T05:18:23;4.43;;;0.80;;
74914;SDS011;63475;45.140;-75.616;2023-06-04T05:19:30;3.70;;;0.60;;
74914;SDS011;63475;45.140;-75.616;2023-06-04T05:20:34;3.47;;;0.70;;
74914;SDS011;63475;45.140;-75.616;2023-06-04T05:21:39;3.30;;;0.82;;
74914;SDS011;63475;45.140;-75.616;2023-06-04T05:22:42;4.75;;;1.02;;
74914;SDS011;63475;45.140;-75.616;2023-06-04T05:23:47;2.60;;;0.50;;
74914;SDS011;63475;45.140;-75.616;2023-06-04T05:24:50;4.22;;;0.90;;
74914;SDS011;63475;45.140;-75.616;2023-06-04T05:25:53;4.63;;;0.90;;
74914;SDS011;63475;45.140;-75.616;2023-06-04T05:26:56;3.63;;;0.70;;
74914;SDS011;63475;45.140;-75.616;2023-06-04T05:27:59;4.88;;;0.80;;
74914;SDS011;63475;45.140;-75.616;2023-06-04T05:29:01;3.97;;;0.82;;
74914;SDS011;63475;45.140;-75.616;2023-06-04T05:30:06;3.65;;;1.00;;
74914;SDS011;63475;45.140;-75.616;2023-06-04T05:31:11;4.13;;;0.95;;
74914;SDS011;63475;45.140;-75.616;2023-06-04T05:32:15;4.18;;;0.70;;
74914;SDS011;63475;45.140;-75.616;2023-06-04T05:33:18;5.30;;;1.02;;
74914;SDS011;63475;45.140;-75.616;2023-06-04T05:34:20;2.92;;;0.60;;
74914;SDS011;63475;45.140;-75.616;2023-06-04T05:35:23;3.97;;;1.08;;
74914;SDS011;63475;45.140;-75.616;2023-06-04T05:36:26;3.85;;;1.00;;
74914;SDS011;63475;45.140;-75.616;2023-06-04T05:37:28;4.72;;;1.15;;
74914;SDS011;63475;45.140;-75.616;2023-06-04T05:38:31;4.35;;;1.70;;
74914;SDS011;63475;45.140;-75.616;2023-06-04T05:39:34;4.50;;;0.85;;
74914;SDS011;63475;45.140;-75.616;2023-06-04T05:40:37;3.65;;;0.90;;
74914;SDS011;63475;45.140;-75.616;2023-06-04T05:41:40;3.63;;;1.27;;
74914;SDS011;63475;45.140;-75.616;2023-06-04T05:42:43;3.72;;;0.80;;
74914;SDS011;63475;45.140;-75.616;2023-06-04T05:43:45;4.65;;;0.80;;
74914;SDS011;63475;45.140;-75.616;2023-06-04T05:44:48;4.95;;;1.00;;
74914;SDS011;63475;45.140;-75.616;2023-06-04T05:45:50;3.95;;;1.05;;
74914;SDS011;63475;45.140;-75.616;2023-06-04T05:46:53;4.68;;;1.40;;
74914;SDS011;63475;45.140;-75.616;2023-06-04T05:47:56;3.08;;;0.60;;
74914;SDS011;63475;45.140;-75.616;2023-06-04T05:49:01;4.40;;;0.73;;
74914;SDS011;63475;45.140;-75.616;2023-06-04T05:50:04;4.47;;;0.95;;
74914;SDS011;63475;45.140;-75.616;2023-06-04T05:51:07;4.57;;;0.93;;
74914;SDS011;63475;45.140;-75.616;2023-06-04T05:52:10;5.13;;;0.80;;
74914;SDS011;63475;45.140;-75.616;2023-06-04T05:53:13;4.10;;;0.60;;
74914;SDS011;63475;45.140;-75.616;2023-06-04T05:54:15;5.55;;;0.90;;
74914;SDS011;63475;45.140;-75.616;2023-06-04T05:55:18;4.18;;;1.00;;
74914;SDS011;63475;45.140;-75.616;2023-06-04T05:56:21;4.40;;;1.30;;
74914;SDS011;63475;45.140;-75.616;2023-06-04T05:57:24;3.15;;;0.95;;
74914;SDS011;63475;45.140;-75.616;2023-06-04T05:58:27;3.67;;;0.85;;
74914;SDS011;63475;45.140;-75.616;2023-06-04T05:59:29;5.03;;;0.93;;
74914;SDS011;63475;45.140;-75.616;2023-06-04T06:00:32;4.82;;;0.60;;
74914;SDS011;63475;45.140;-75.616;2023-06-04T06:01:34;4.22;;;0.80;;
74914;SDS011;63475;45.140;-75.616;2023-06-04T06:02:38;4.03;;;0.60;;
74914;SDS011;63475;45.140;-75.616;2023-06-04T06:03:41;4.15;;;1.10;;
74914;SDS011;63475;45.140;-75.616;2023-06-04T06:04:44;4.38;;;1.30;;
74914;SDS011;63475;45.140;-75.616;2023-06-04T06:05:47;4.10;;;1.00;;
74914;SDS011;63475;45.140;-75.616;2023-06-04T06:06:49;3.40;;;0.90;;
74914;SDS011;63475;45.140;-75.616;2023-06-04T06:07:52;4.50;;;0.70;;
74914;SDS011;63475;45.140;-75.616;2023-06-04T06:08:55;5.00;;;1.50;;
74914;SDS011;63475;45.140;-75.616;2023-06-04T06:09:57;5.22;;;0.70;;
74914;SDS011;63475;45.140;-75.616;2023-06-04T06:11:00;4.47;;;1.23;;
74914;SDS011;63475;45.140;-75.616;2023-06-04T06:12:09;2.97;;;0.70;;
74914;SDS011;63475;45.140;-75.616;2023-06-04T06:13:12;3.20;;;0.80;;
74914;SDS011;63475;45.140;-75.616;2023-06-04T06:14:15;3.75;;;1.05;;
74914;SDS011;63475;45.140;-75.616;2023-06-04T06:15:17;3.33;;;1.00;;
74914;SDS011;63475;45.140;-75.616;2023-06-04T06:16:20;3.88;;;0.90;;
74914;SDS011;63475;45.140;-75.616;2023-06-04T06:17:23;5.43;;;1.10;;
74914;SDS011;63475;45.140;-75.616;2023-06-04T06:18:26;4.03;;;0.93;;
74914;SDS011;63475;45.140;-75.616;2023-06-04T06:19:28;3.05;;;0.75;;
74914;SDS011;63475;45.140;-75.616;2023-06-04T06:20:31;4.97;;;0.77;;
74914;SDS011;63475;45.140;-75.616;2023-06-04T06:21:34;3.45;;;1.00;;
74914;SDS011;63475;45.140;-75.616;2023-06-04T06:22:36;3.78;;;1.40;;
74914;SDS011;63475;45.140;-75.616;2023-06-04T06:23:39;4.47;;;1.00;;